Decoded Metar for PACM (SCAMMON BAY in AK, USA) (IATA:SCM) | Meteo·Mobile Aviation Weather
aviador You're here:

PACM Decoded Metar

SCAMMON BAY in AK, USA
Report Time2018-10-18 08:56:00
UTC Time2018-10-18 09:10:33
Flight Rules mvfr MVFR
Wind270° at 05 kt
W.Decomp.*RWY 28: 4.6 kt HW 1.9 kt LCW
W.Rank270° ranks 7
Current wind is below 270° avg. (9.3)
Visibility9999 m
Phenomena:N/A
Clouds:Overcast 020 Hf
Expected CloudBase > 400 ft AGL from Temp-Dew spread
Ceiling2,000 ft
Temp03°C (ISA -12)
Dew Point02°C (93% RH)
AAT-0.5°C
QNH1004 hPa
Density Alt-1,037 ft
Elevation13 ft
Report Wrong Elevation
Raw Report
PACM 180856Z AUTO 27005KT 10SM OVC020 03/02 A2964 RMK AO2 SLP034
T00330022 400610028 53010=

Extra information for PACM:More info

Metar Taf Metar & Taf Last 4 Metars F.Rules Stats Wind Profile Meteogram Temp Stats Airport Information Weather charts Add Link Nearby VenuesMetar ALERT Operation Metar Decoded Social comments

AIRNAV info for PACM